createdAt,value
2018-04-29T00:02:16.936Z,99872.69
2018-04-29T00:04:44.601Z,99878.34
2018-04-29T00:07:12.271Z,99866.17
2018-04-29T00:09:39.945Z,99864.81
2018-04-29T00:12:07.576Z,99859.84
2018-04-29T00:14:35.257Z,99856.83
2018-04-29T00:17:02.996Z,99866.27
2018-04-29T00:19:30.673Z,99860.21
2018-04-29T00:21:58.307Z,99854.29
2018-04-29T00:24:26.000Z,99857.38
2018-04-29T00:26:53.625Z,99859.98
2018-04-29T00:29:21.363Z,99857.62
2018-04-29T00:31:49.008Z,99859.50
2018-04-29T00:34:16.724Z,99866.11
2018-04-29T00:36:44.370Z,99866.94
2018-04-29T00:39:12.079Z,99864.58
2018-04-29T00:41:39.728Z,99864.37
2018-04-29T00:44:07.360Z,99857.66
2018-04-29T00:46:35.046Z,99853.53
2018-04-29T00:49:02.685Z,99849.91
2018-04-29T00:51:42.235Z,99842.59
2018-04-29T00:54:09.934Z,99838.54
2018-04-29T00:56:37.619Z,99843.98
2018-04-29T00:59:05.240Z,99854.57
2018-04-29T01:01:32.942Z,99849.31
2018-04-29T01:04:00.621Z,99847.06
2018-04-29T01:06:28.298Z,99850.31
2018-04-29T01:08:55.940Z,99845.62
2018-04-29T01:11:23.609Z,99842.41
2018-04-29T01:13:51.237Z,99828.49
2018-04-29T01:16:18.906Z,99831.38
2018-04-29T01:18:46.534Z,99834.30
2018-04-29T01:21:14.197Z,99832.09
2018-04-29T01:23:41.833Z,99816.33
2018-04-29T01:26:09.495Z,99819.56
2018-04-29T01:28:37.122Z,99823.62
2018-04-29T01:31:04.797Z,99825.86
2018-04-29T01:33:32.438Z,99814.17
2018-04-29T01:36:00.128Z,99817.91
2018-04-29T01:38:27.765Z,99807.34
2018-04-29T01:40:55.443Z,99800.01
2018-04-29T01:43:23.092Z,99787.31
2018-04-29T01:45:50.772Z,99788.81
2018-04-29T01:48:18.426Z,99792.18
2018-04-29T01:50:46.090Z,99797.77
2018-04-29T01:53:13.765Z,99794.27
2018-04-29T01:55:41.444Z,99790.11
2018-04-29T01:58:09.073Z,99794.33
2018-04-29T02:00:36.764Z,99798.70
2018-04-29T02:03:04.388Z,99794.71
2018-04-29T02:05:32.082Z,99787.25
2018-04-29T02:07:59.726Z,99791.95
2018-04-29T02:10:27.420Z,99787.14
2018-04-29T02:12:55.075Z,99783.25
2018-04-29T02:15:22.749Z,99782.24
2018-04-29T02:17:50.378Z,99779.36
2018-04-29T02:20:18.042Z,99765.39
2018-04-29T02:22:45.665Z,99765.47
2018-04-29T02:25:13.342Z,99757.50
2018-04-29T02:27:40.967Z,99762.32
2018-04-29T02:30:08.678Z,99767.97
2018-04-29T02:32:36.309Z,99767.55
2018-04-29T02:35:03.996Z,99762.55
2018-04-29T02:37:31.633Z,99768.34
2018-04-29T02:39:59.348Z,99762.50
2018-04-29T02:42:26.977Z,99747.70
2018-04-29T02:44:54.659Z,99752.19
2018-04-29T02:47:22.326Z,99748.31
2018-04-29T02:49:50.004Z,99730.21
2018-04-29T02:52:17.644Z,99730.88
2018-04-29T02:54:45.351Z,99737.45
2018-04-29T02:57:12.986Z,99735.27
2018-04-29T02:59:40.637Z,99733.30
2018-04-29T03:02:08.321Z,99732.46
2018-04-29T03:04:35.969Z,99729.73
2018-04-29T03:07:03.660Z,99720.47
2018-04-29T03:09:31.296Z,99723.30
2018-04-29T03:11:59.002Z,99725.31
2018-04-29T03:14:26.645Z,99716.72
2018-04-29T03:16:54.317Z,99712.83
2018-04-29T03:19:21.944Z,99714.31
2018-04-29T03:21:49.632Z,99709.60
2018-04-29T03:24:17.272Z,99707.52
2018-04-29T03:26:44.957Z,99716.03
2018-04-29T03:29:12.582Z,99709.22
2018-04-29T03:31:40.245Z,99707.89
2018-04-29T03:34:07.887Z,99706.86
2018-04-29T03:36:35.584Z,99712.52
2018-04-29T03:39:03.258Z,99706.44
2018-04-29T03:41:30.968Z,99705.63
2018-04-29T03:43:58.602Z,99711.44
2018-04-29T03:46:26.269Z,99701.11
2018-04-29T03:48:53.925Z,99688.34
2018-04-29T03:51:21.627Z,99689.02
2018-04-29T03:53:49.263Z,99692.22
2018-04-29T03:56:16.930Z,99706.35
2018-04-29T03:58:57.597Z,99697.34
2018-04-29T04:01:37.088Z,99687.97
2018-04-29T04:04:04.960Z,99668.12
2018-04-29T04:06:32.679Z,99655.66
2018-04-29T04:09:00.676Z,99667.79
2018-04-29T04:11:28.368Z,99672.59
2018-04-29T04:13:56.014Z,99669.34
2018-04-29T04:16:23.725Z,99654.64
2018-04-29T04:18:51.361Z,99659.08
2018-04-29T04:21:19.091Z,99661.17
2018-04-29T04:23:46.765Z,99670.99
2018-04-29T04:26:15.916Z,99677.47
2018-04-29T04:28:43.589Z,99679.91
2018-04-29T04:31:11.350Z,99676.34
2018-04-29T04:33:39.490Z,99700.27
2018-04-29T04:36:07.225Z,99710.95
2018-04-29T04:38:34.867Z,99704.41
2018-04-29T04:41:02.601Z,99691.48
2018-04-29T04:43:30.438Z,99702.84
2018-04-29T04:45:58.502Z,99708.09
2018-04-29T04:48:27.018Z,99703.09
2018-04-29T04:50:54.694Z,99707.82
2018-04-29T04:53:25.752Z,99702.98
2018-04-29T04:55:53.497Z,99723.61
2018-04-29T04:58:21.167Z,99731.61
2018-04-29T05:00:48.861Z,99744.09
2018-04-29T05:03:16.612Z,99736.35
2018-04-29T05:05:46.669Z,99739.38
2018-04-29T05:08:18.009Z,99746.45
2018-04-29T05:10:45.747Z,99762.41
2018-04-29T05:13:14.152Z,99754.78
2018-04-29T05:15:42.605Z,99753.45
2018-04-29T05:18:10.254Z,99743.60
2018-04-29T05:20:37.964Z,99690.77
2018-04-29T05:23:05.627Z,99609.41
2018-04-29T05:25:33.309Z,99611.86
2018-04-29T05:28:01.083Z,99668.92
2018-04-29T05:30:29.990Z,99678.53
2018-04-29T05:32:57.626Z,99686.29
2018-04-29T05:35:25.301Z,99666.88
2018-04-29T05:37:53.001Z,99658.45
2018-04-29T05:40:26.872Z,99646.18
2018-04-29T05:42:55.764Z,99664.41
2018-04-29T05:45:23.480Z,99685.12
2018-04-29T05:47:51.174Z,99684.70
2018-04-29T05:50:19.601Z,99666.19
2018-04-29T05:52:47.359Z,99653.89
2018-04-29T05:55:15.409Z,99659.13
2018-04-29T05:57:43.151Z,99651.05
2018-04-29T06:00:10.828Z,99648.67
2018-04-29T06:02:38.557Z,99657.19
2018-04-29T06:05:08.293Z,99665.58
2018-04-29T06:07:36.089Z,99654.29
2018-04-29T06:10:05.786Z,99658.41
2018-04-29T06:12:34.037Z,99663.13
2018-04-29T06:15:01.684Z,99660.52
2018-04-29T06:17:29.370Z,99661.91
2018-04-29T06:19:57.006Z,99671.67
2018-04-29T06:22:24.726Z,99669.05
2018-04-29T06:24:52.414Z,99674.75
2018-04-29T06:27:20.134Z,99676.88
2018-04-29T06:29:47.762Z,99681.77
2018-04-29T06:32:15.493Z,99684.50
2018-04-29T06:34:43.146Z,99672.41
2018-04-29T06:37:10.853Z,99660.95
2018-04-29T06:39:38.489Z,99663.31
2018-04-29T06:42:06.170Z,99663.16
2018-04-29T06:44:33.810Z,99660.17
2018-04-29T06:47:01.482Z,99642.90
2018-04-29T06:49:29.168Z,99650.17
2018-04-29T06:51:56.864Z,99653.78
2018-04-29T06:54:24.499Z,99666.19
2018-04-29T06:56:52.184Z,99687.08
2018-04-29T06:59:19.849Z,99699.78
2018-04-29T07:01:47.529Z,99707.23
2018-04-29T07:04:15.870Z,99690.84
2018-04-29T07:06:47.652Z,99687.92
2018-04-29T07:09:15.287Z,99677.85
2018-04-29T07:11:43.392Z,99666.52
2018-04-29T07:14:13.188Z,99695.30
2018-04-29T07:16:43.044Z,99701.80
2018-04-29T07:19:10.961Z,99706.50
2018-04-29T07:21:42.043Z,99734.68
2018-04-29T07:24:13.403Z,99746.51
2018-04-29T07:26:43.917Z,99728.95
2018-04-29T07:29:11.576Z,99699.26
2018-04-29T07:31:39.269Z,99699.19
2018-04-29T07:34:06.957Z,99693.67
2018-04-29T07:36:34.781Z,99704.57
2018-04-29T07:39:02.477Z,99710.95
2018-04-29T07:41:30.171Z,99703.37
2018-04-29T07:43:58.031Z,99721.10
2018-04-29T07:46:30.370Z,99742.77
2018-04-29T07:48:58.518Z,99723.73
2018-04-29T07:51:26.192Z,99693.94
2018-04-29T07:53:53.877Z,99692.61
2018-04-29T07:56:21.559Z,99694.83
2018-04-29T07:58:49.281Z,99694.53
2018-04-29T08:01:16.996Z,99691.53
2018-04-29T08:03:44.659Z,99697.45
2018-04-29T08:06:13.243Z,99706.11
2018-04-29T08:08:40.917Z,99703.91
2018-04-29T08:11:08.618Z,99695.75
2018-04-29T08:13:36.622Z,99692.63
2018-04-29T08:16:07.970Z,99689.68
2018-04-29T08:18:36.071Z,99667.67
2018-04-29T08:21:03.812Z,99644.86
2018-04-29T08:23:31.521Z,99628.27
2018-04-29T08:26:01.547Z,99633.89
2018-04-29T08:28:29.466Z,99637.42
2018-04-29T08:30:57.420Z,99652.02
2018-04-29T08:33:28.376Z,99651.92
2018-04-29T08:35:56.257Z,99643.73
2018-04-29T08:38:23.991Z,99647.70
2018-04-29T08:40:51.686Z,99644.59
2018-04-29T08:43:19.457Z,99628.22
2018-04-29T08:45:49.428Z,99616.01
2018-04-29T08:48:20.532Z,99609.27
2018-04-29T08:50:51.687Z,99606.50
2018-04-29T08:53:24.812Z,99611.61
2018-04-29T08:55:55.463Z,99624.25
2018-04-29T08:58:26.479Z,99618.09
2018-04-29T09:00:54.354Z,99606.37
2018-04-29T09:03:22.090Z,99598.63
2018-04-29T09:05:52.290Z,99611.22
2018-04-29T09:08:22.579Z,99600.84
2018-04-29T09:10:53.696Z,99601.88
2018-04-29T09:13:24.606Z,99593.61
2018-04-29T09:15:59.145Z,99588.71
2018-04-29T09:18:29.828Z,99604.94
2018-04-29T09:20:57.472Z,99601.22
2018-04-29T09:23:25.157Z,99599.44
2018-04-29T09:25:54.348Z,99597.98
2018-04-29T09:28:24.636Z,99601.55
2018-04-29T09:30:54.686Z,99603.75
2018-04-29T09:33:25.790Z,99603.16
2018-04-29T09:35:56.928Z,99597.13
2018-04-29T09:38:30.315Z,99600.05
2018-04-29T09:40:58.180Z,99585.70
2018-04-29T09:43:26.111Z,99572.10
2018-04-29T09:45:56.729Z,99574.73
2018-04-29T09:48:27.009Z,99575.13
2018-04-29T09:50:56.910Z,99569.91
2018-04-29T09:53:31.885Z,99578.24
2018-04-29T09:56:04.592Z,99563.08
2018-04-29T09:58:39.882Z,99564.44
2018-04-29T10:01:13.024Z,99561.29
2018-04-29T10:03:41.250Z,99557.42
2018-04-29T10:06:09.079Z,99549.42
2018-04-29T10:08:37.809Z,99543.61
2018-04-29T10:11:07.316Z,99547.73
2018-04-29T10:13:35.180Z,99548.77
2018-04-29T10:16:02.999Z,99548.47
2018-04-29T10:18:30.768Z,99554.55
2018-04-29T10:20:58.581Z,99543.29
2018-04-29T10:23:26.450Z,99556.66
2018-04-29T10:25:54.101Z,99554.66
2018-04-29T10:28:21.783Z,99538.50
2018-04-29T10:30:49.425Z,99542.95
2018-04-29T10:33:17.110Z,99555.40
2018-04-29T10:35:44.769Z,99526.65
2018-04-29T10:38:12.458Z,99523.34
2018-04-29T10:40:40.121Z,99512.66
2018-04-29T10:43:07.828Z,99504.36
2018-04-29T10:45:35.499Z,99493.47
2018-04-29T10:48:03.223Z,99491.56
2018-04-29T10:50:30.962Z,99498.80
2018-04-29T10:52:58.678Z,99494.52
2018-04-29T10:55:26.388Z,99481.17
2018-04-29T10:57:54.161Z,99479.69
2018-04-29T11:00:21.829Z,99477.69
2018-04-29T11:02:49.551Z,99474.56
2018-04-29T11:05:17.229Z,99479.33
2018-04-29T11:07:44.994Z,99481.77
2018-04-29T11:10:12.737Z,99484.30
2018-04-29T11:12:40.459Z,99484.54
2018-04-29T11:15:08.175Z,99481.05
2018-04-29T11:17:35.902Z,99474.56
2018-04-29T11:20:03.559Z,99474.31
2018-04-29T11:22:31.318Z,99472.94
2018-04-29T11:24:59.049Z,99485.90
2018-04-29T11:27:26.729Z,99472.44
2018-04-29T11:29:54.378Z,99466.95
2018-04-29T11:32:22.080Z,99463.16
2018-04-29T11:34:49.764Z,99464.53
2018-04-29T11:37:17.467Z,99467.41
2018-04-29T11:39:45.167Z,99471.42
2018-04-29T11:42:12.875Z,99480.88
2018-04-29T11:44:40.547Z,99476.72
2018-04-29T11:47:08.267Z,99463.20
2018-04-29T11:49:35.923Z,99458.23
2018-04-29T11:52:03.631Z,99462.81
2018-04-29T11:54:31.287Z,99454.85
2018-04-29T11:56:58.974Z,99448.96
2018-04-29T11:59:26.700Z,99430.02
2018-04-29T12:01:54.458Z,99436.63
2018-04-29T12:04:22.147Z,99431.78
2018-04-29T12:06:49.815Z,99424.52
2018-04-29T12:09:17.513Z,99419.93
2018-04-29T12:11:45.187Z,99416.36
2018-04-29T12:14:12.928Z,99413.76
2018-04-29T12:16:40.569Z,99409.47
2018-04-29T12:19:08.376Z,99404.77
2018-04-29T12:21:36.058Z,99398.72
2018-04-29T12:24:03.748Z,99395.05
2018-04-29T12:26:31.403Z,99380.26
2018-04-29T12:28:59.103Z,99379.06
2018-04-29T12:31:26.770Z,99374.36
2018-04-29T12:33:54.535Z,99371.80
2018-04-29T12:36:22.187Z,99366.20
2018-04-29T12:38:49.886Z,99354.55
2018-04-29T12:41:17.546Z,99355.29
2018-04-29T12:43:45.221Z,99353.14
2018-04-29T12:46:12.875Z,99347.04
2018-04-29T12:48:40.579Z,99341.05
2018-04-29T12:51:08.221Z,99336.84
2018-04-29T12:53:35.914Z,99324.97
2018-04-29T12:56:03.550Z,99323.80
2018-04-29T12:58:33.322Z,99326.60
2018-04-29T13:01:01.312Z,99318.84
2018-04-29T13:03:32.962Z,99316.44
2018-04-29T13:06:00.676Z,99304.39
2018-04-29T13:08:31.313Z,99298.59
2018-04-29T13:10:59.591Z,99300.36
2018-04-29T13:13:27.294Z,99291.47
2018-04-29T13:15:54.937Z,99282.13
2018-04-29T13:18:22.627Z,99278.34
2018-04-29T13:20:52.404Z,99272.84
2018-04-29T13:23:23.537Z,99267.55
2018-04-29T13:25:52.416Z,99257.48
2018-04-29T13:28:20.128Z,99263.55
2018-04-29T13:30:47.759Z,99247.47
2018-04-29T13:33:15.459Z,99234.23
2018-04-29T13:35:43.137Z,99226.17
2018-04-29T13:38:15.022Z,99227.97
2018-04-29T13:40:46.282Z,99221.17
2018-04-29T13:43:18.049Z,99212.11
2018-04-29T13:45:45.777Z,99204.97
2018-04-29T13:48:13.515Z,99199.18
2018-04-29T13:50:42.850Z,99191.80
2018-04-29T13:53:10.606Z,99182.04
2018-04-29T13:55:39.628Z,99182.81
2018-04-29T13:58:10.767Z,99177.87
2018-04-29T14:00:38.603Z,99164.15
2018-04-29T14:03:06.587Z,99158.89
2018-04-29T14:05:35.613Z,99157.61
2018-04-29T14:08:03.779Z,99153.87
2018-04-29T14:10:31.506Z,99153.86
2018-04-29T14:12:59.209Z,99152.50
2018-04-29T14:15:26.876Z,99154.94
2018-04-29T14:17:54.608Z,99143.94
2018-04-29T14:20:22.267Z,99142.52
2018-04-29T14:22:50.025Z,99142.02
2018-04-29T14:25:17.679Z,99137.89
2018-04-29T14:27:45.360Z,99139.39
2018-04-29T14:30:13.019Z,99140.17
2018-04-29T14:32:40.803Z,99133.94
2018-04-29T14:35:09.362Z,99132.45
2018-04-29T14:37:37.005Z,99121.27
2018-04-29T14:40:04.702Z,99123.52
2018-04-29T14:42:33.420Z,99126.58
2018-04-29T14:45:01.104Z,99118.50
2018-04-29T14:47:28.767Z,99113.88
2018-04-29T14:49:56.469Z,99115.26
2018-04-29T14:52:24.144Z,99106.31
2018-04-29T14:54:51.829Z,99103.70
2018-04-29T14:57:19.471Z,99096.05
2018-04-29T14:59:47.154Z,99089.41
2018-04-29T15:02:17.405Z,99094.42
2018-04-29T15:04:45.130Z,99091.54
2018-04-29T15:07:12.764Z,99088.38
2018-04-29T15:09:41.000Z,99081.06
2018-04-29T15:12:11.030Z,99073.73
2018-04-29T15:14:38.717Z,99072.69
2018-04-29T15:17:06.531Z,99068.45
2018-04-29T15:19:46.306Z,99059.30
2018-04-29T15:22:13.955Z,99055.73
2018-04-29T15:24:41.647Z,99049.75
2018-04-29T15:27:09.353Z,99056.33
2018-04-29T15:29:37.043Z,99056.48
2018-04-29T15:32:07.816Z,99037.36
2018-04-29T15:34:37.499Z,99038.77
2018-04-29T15:37:06.770Z,99028.35
2018-04-29T15:39:34.738Z,99014.52
2018-04-29T15:42:02.429Z,99014.12
2018-04-29T15:44:30.331Z,99010.40
2018-04-29T15:47:00.900Z,99011.70
2018-04-29T15:49:28.589Z,99001.67
2018-04-29T15:51:59.817Z,98997.53
2018-04-29T15:54:30.743Z,98992.83
2018-04-29T15:56:58.381Z,98988.64
2018-04-29T15:59:30.075Z,98976.98
2018-04-29T16:02:01.929Z,98967.64
2018-04-29T16:04:33.493Z,98964.04
2018-04-29T16:07:04.200Z,98952.38
2018-04-29T16:09:35.472Z,98952.84
2018-04-29T16:12:05.616Z,98944.16
2018-04-29T16:14:36.244Z,98947.76
2018-04-29T16:17:11.444Z,98940.57
2018-04-29T16:19:47.473Z,98938.88
2018-04-29T16:22:23.454Z,98925.20
2018-04-29T16:24:59.965Z,98923.98
2018-04-29T17:50:59.336Z,98759.17
2018-04-29T17:53:26.996Z,98753.78
2018-04-29T17:55:54.662Z,98745.04
2018-04-29T17:58:22.269Z,98744.37
2018-04-29T18:00:49.945Z,98740.34
2018-04-29T18:03:17.578Z,98739.30
2018-04-29T18:05:45.248Z,98735.20
2018-04-29T18:08:12.875Z,98733.11
2018-04-29T18:10:40.527Z,98733.30
2018-04-29T18:13:08.227Z,98718.16
2018-04-29T18:15:35.888Z,98719.05
2018-04-29T18:18:03.556Z,98715.23
2018-04-29T18:20:31.253Z,98710.43
2018-04-29T18:22:58.867Z,98704.02
2018-04-29T18:25:26.539Z,98698.50
2018-04-29T18:27:54.197Z,98699.95
2018-04-29T18:30:21.903Z,98687.16
2018-04-29T18:32:49.547Z,98681.24
2018-04-29T18:35:17.194Z,98687.61
2018-04-29T18:37:44.854Z,98682.60
2018-04-29T18:40:12.517Z,98682.08
2018-04-29T18:42:40.124Z,98674.03
2018-04-29T18:45:07.783Z,98672.16
2018-04-29T18:47:35.459Z,98658.05
2018-04-29T18:50:03.202Z,98654.45
2018-04-29T18:52:30.863Z,98649.56
2018-04-29T18:54:58.583Z,98649.34
2018-04-29T18:57:26.190Z,98649.06
2018-04-29T18:59:53.941Z,98644.48
2018-04-29T19:02:21.572Z,98643.58
2018-04-29T19:04:49.255Z,98641.14
2018-04-29T19:07:16.871Z,98637.87
2018-04-29T19:09:44.536Z,98640.04
2018-04-29T19:12:12.152Z,98633.33
2018-04-29T19:14:39.799Z,98634.56
2018-04-29T19:17:07.465Z,98631.39
2018-04-29T19:19:35.123Z,98628.08
2018-04-29T19:22:02.763Z,98620.39
2018-04-29T19:24:30.471Z,98618.91
2018-04-29T19:26:58.070Z,98614.78
2018-04-29T19:29:25.739Z,98605.63
2018-04-29T19:31:53.409Z,98601.86
2018-04-29T19:34:21.074Z,98588.75
2018-04-29T19:36:48.692Z,98577.49
2018-04-29T19:39:16.368Z,98580.75
2018-04-29T19:41:43.983Z,98577.66
2018-04-29T19:44:11.636Z,98569.38
2018-04-29T19:46:39.253Z,98556.95
2018-04-29T19:49:06.913Z,98556.71
2018-04-29T19:51:34.556Z,98548.84
2018-04-29T19:54:02.232Z,98536.80
2018-04-29T19:56:29.856Z,98531.20
2018-04-29T19:58:57.523Z,98523.81
2018-04-29T20:01:25.171Z,98523.48
2018-04-29T20:03:52.813Z,98522.46
2018-04-29T20:06:20.466Z,98515.45
2018-04-29T20:08:48.095Z,98504.80
2018-04-29T20:11:15.757Z,98493.58
2018-04-29T20:13:43.408Z,98497.02
2018-04-29T20:16:11.050Z,98490.13
2018-04-29T20:18:38.666Z,98491.98
2018-04-29T20:21:06.325Z,98492.40
2018-04-29T20:23:33.943Z,98495.09
2018-04-29T20:26:01.642Z,98490.58
2018-04-29T20:28:29.267Z,98486.66
2018-04-29T20:30:56.939Z,98479.00
2018-04-29T20:33:24.581Z,98472.73
2018-04-29T20:35:52.237Z,98462.13
2018-04-29T20:38:19.857Z,98457.95
2018-04-29T20:40:47.572Z,98452.89
2018-04-29T20:43:15.248Z,98446.82
2018-04-29T20:45:42.907Z,98447.97
2018-04-29T20:48:10.515Z,98449.53
2018-04-29T20:50:38.174Z,98443.30
2018-04-29T20:53:05.787Z,98443.20
2018-04-29T20:55:33.477Z,98448.63
2018-04-29T20:58:01.175Z,98443.48
2018-04-29T21:00:28.834Z,98452.93
2018-04-29T21:02:56.467Z,98460.14
2018-04-29T21:05:24.135Z,98455.82
2018-04-29T21:07:51.820Z,98452.28
2018-04-29T21:10:19.519Z,98441.81
2018-04-29T21:12:47.143Z,98438.61
2018-04-29T21:15:14.803Z,98447.63
2018-04-29T21:17:42.420Z,98439.81
2018-04-29T21:20:10.118Z,98428.77
2018-04-29T21:22:37.790Z,98443.30
2018-04-29T21:25:06.353Z,98433.13
2018-04-29T21:27:33.981Z,98421.12
2018-04-29T21:30:01.627Z,98421.03
2018-04-29T21:32:29.238Z,98419.11
2018-04-29T21:34:56.908Z,98421.20
2018-04-29T21:37:24.558Z,98417.44
2018-04-29T21:39:52.224Z,98419.77
2018-04-29T21:42:19.840Z,98425.52
2018-04-29T21:44:47.522Z,98430.27
2018-04-29T21:47:15.143Z,98429.09
2018-04-29T21:49:42.831Z,98427.88
2018-04-29T21:52:10.456Z,98421.13
2018-04-29T21:54:38.157Z,98420.95
2018-04-29T21:57:05.775Z,98414.73
2018-04-29T21:59:33.440Z,98410.38
2018-04-29T22:02:01.053Z,98405.92
2018-04-29T22:04:28.716Z,98407.64
2018-04-29T22:06:56.323Z,98394.46
2018-04-29T22:09:23.967Z,98391.38
2018-04-29T22:11:51.631Z,98380.95
2018-04-29T22:14:19.250Z,98380.14
2018-04-29T22:16:46.935Z,98383.17
2018-04-29T22:19:14.561Z,98380.38
2018-04-29T22:21:42.322Z,98375.59
2018-04-29T22:24:09.967Z,98377.89
2018-04-29T22:26:37.616Z,98371.25
2018-04-29T22:29:05.226Z,98370.36
2018-04-29T22:31:32.892Z,98373.92
2018-04-29T22:34:00.521Z,98366.30
2018-04-29T22:36:28.178Z,98361.59
2018-04-29T22:38:55.784Z,98368.02
2018-04-29T22:41:23.440Z,98365.64
2018-04-29T22:43:51.127Z,98363.63
2018-04-29T22:46:18.785Z,98361.42
2018-04-29T22:48:46.403Z,98364.77
2018-04-29T22:51:14.058Z,98360.52
2018-04-29T22:53:41.687Z,98365.73
2018-04-29T22:56:09.335Z,98379.39
2018-04-29T22:58:36.986Z,98377.47
2018-04-29T23:01:04.680Z,98390.10
2018-04-29T23:03:32.287Z,98396.50
2018-04-29T23:05:59.941Z,98425.38
2018-04-29T23:08:27.551Z,98428.85
2018-04-29T23:10:55.233Z,98430.95
2018-04-29T23:13:22.850Z,98428.38
2018-04-29T23:15:50.510Z,98437.28
2018-04-29T23:18:18.126Z,98437.10
2018-04-29T23:20:45.809Z,98441.50
2018-04-29T23:23:13.479Z,98440.85
2018-04-29T23:25:41.198Z,98436.82
2018-04-29T23:28:08.808Z,98461.23
2018-04-29T23:30:36.468Z,98462.34
2018-04-29T23:33:04.083Z,98465.54
2018-04-29T23:35:31.733Z,98454.78
2018-04-29T23:37:59.406Z,98460.34
2018-04-29T23:40:27.062Z,98471.72
2018-04-29T23:42:54.720Z,98488.88
2018-04-29T23:45:22.399Z,98510.46
2018-04-29T23:47:50.035Z,98510.98
2018-04-29T23:50:17.692Z,98516.67
2018-04-29T23:52:45.304Z,98519.44
2018-04-29T23:55:12.988Z,98523.23
2018-04-29T23:57:40.603Z,98535.34
